sensor_id;sensor_type;location;lat;lon;timestamp;temperature;humidity
18839;DHT22;9548;56.920;14.804;2022-09-06T00:00:58;7.90;99.90
18839;DHT22;9548;56.920;14.804;2022-09-06T00:03:25;8.00;99.90
18839;DHT22;9548;56.920;14.804;2022-09-06T00:05:52;8.10;99.90
18839;DHT22;9548;56.920;14.804;2022-09-06T00:08:19;8.20;99.90
18839;DHT22;9548;56.920;14.804;2022-09-06T00:10:46;8.30;99.90
18839;DHT22;9548;56.920;14.804;2022-09-06T00:13:15;8.40;99.90
18839;DHT22;9548;56.920;14.804;2022-09-06T00:15:42;8.50;99.90
18839;DHT22;9548;56.920;14.804;2022-09-06T00:18:08;8.50;99.90
18839;DHT22;9548;56.920;14.804;2022-09-06T00:20:37;8.60;99.90
18839;DHT22;9548;56.920;14.804;2022-09-06T00:23:06;8.60;99.90
18839;DHT22;9548;56.920;14.804;2022-09-06T00:25:33;8.50;99.90
18839;DHT22;9548;56.920;14.804;2022-09-06T00:28:02;8.50;99.90
18839;DHT22;9548;56.920;14.804;2022-09-06T00:30:32;8.40;99.90
18839;DHT22;9548;56.920;14.804;2022-09-06T00:32:59;8.40;99.90
18839;DHT22;9548;56.920;14.804;2022-09-06T00:35:26;8.30;99.90
18839;DHT22;9548;56.920;14.804;2022-09-06T00:37:56;8.20;99.90
18839;DHT22;9548;56.920;14.804;2022-09-06T00:40:23;8.20;99.90
18839;DHT22;9548;56.920;14.804;2022-09-06T00:42:50;8.10;99.90
18839;DHT22;9548;56.920;14.804;2022-09-06T00:45:18;8.10;99.90
18839;DHT22;9548;56.920;14.804;2022-09-06T00:47:46;8.00;99.90
18839;DHT22;9548;56.920;14.804;2022-09-06T00:50:15;8.00;99.90
18839;DHT22;9548;56.920;14.804;2022-09-06T00:52:45;8.00;99.90
18839;DHT22;9548;56.920;14.804;2022-09-06T00:55:12;8.00;99.90
18839;DHT22;9548;56.920;14.804;2022-09-06T00:57:40;8.10;99.90
18839;DHT22;9548;56.920;14.804;2022-09-06T01:00:08;8.20;99.90
18839;DHT22;9548;56.920;14.804;2022-09-06T01:02:35;8.20;99.90
18839;DHT22;9548;56.920;14.804;2022-09-06T01:05:05;8.30;99.90
18839;DHT22;9548;56.920;14.804;2022-09-06T01:07:47;8.40;99.90
18839;DHT22;9548;56.920;14.804;2022-09-06T01:10:39;8.50;99.90
18839;DHT22;9548;56.920;14.804;2022-09-06T01:13:19;8.60;99.90
18839;DHT22;9548;56.920;14.804;2022-09-06T01:15:55;8.70;99.90
18839;DHT22;9548;56.920;14.804;2022-09-06T01:18:36;8.80;99.90
18839;DHT22;9548;56.920;14.804;2022-09-06T01:21:15;8.80;99.90
18839;DHT22;9548;56.920;14.804;2022-09-06T01:24:17;8.90;99.90
18839;DHT22;9548;56.920;14.804;2022-09-06T01:27:26;9.00;99.90
18839;DHT22;9548;56.920;14.804;2022-09-06T01:29:58;9.10;99.90
18839;DHT22;9548;56.920;14.804;2022-09-06T01:32:31;9.20;99.90
18839;DHT22;9548;56.920;14.804;2022-09-06T01:35:04;9.20;99.90
18839;DHT22;9548;56.920;14.804;2022-09-06T01:37:33;9.20;99.90
18839;DHT22;9548;56.920;14.804;2022-09-06T01:40:00;9.30;99.90
18839;DHT22;9548;56.920;14.804;2022-09-06T01:42:30;9.30;99.90
18839;DHT22;9548;56.920;14.804;2022-09-06T01:45:00;9.40;99.90
18839;DHT22;9548;56.920;14.804;2022-09-06T01:47:37;9.40;99.90
18839;DHT22;9548;56.920;14.804;2022-09-06T01:53:03;9.50;99.90
18839;DHT22;9548;56.920;14.804;2022-09-06T01:55:41;9.50;99.90
18839;DHT22;9548;56.920;14.804;2022-09-06T01:58:27;9.60;99.90
18839;DHT22;9548;56.920;14.804;2022-09-06T02:01:02;9.60;99.90
18839;DHT22;9548;56.920;14.804;2022-09-06T02:03:35;9.60;99.90
18839;DHT22;9548;56.920;14.804;2022-09-06T02:06:06;9.70;99.90
18839;DHT22;9548;56.920;14.804;2022-09-06T02:08:39;9.70;99.90
18839;DHT22;9548;56.920;14.804;2022-09-06T02:11:08;9.70;99.90
18839;DHT22;9548;56.920;14.804;2022-09-06T02:13:38;9.70;99.90
18839;DHT22;9548;56.920;14.804;2022-09-06T02:16:07;9.70;99.90
18839;DHT22;9548;56.920;14.804;2022-09-06T02:18:39;9.70;99.90
18839;DHT22;9548;56.920;14.804;2022-09-06T02:21:07;9.80;99.90
18839;DHT22;9548;56.920;14.804;2022-09-06T02:23:38;9.80;99.90
18839;DHT22;9548;56.920;14.804;2022-09-06T02:26:11;9.80;99.90
18839;DHT22;9548;56.920;14.804;2022-09-06T02:28:40;9.80;99.90
18839;DHT22;9548;56.920;14.804;2022-09-06T02:31:10;9.90;99.90
18839;DHT22;9548;56.920;14.804;2022-09-06T02:33:39;9.90;99.90
18839;DHT22;9548;56.920;14.804;2022-09-06T02:36:08;9.90;99.90
18839;DHT22;9548;56.920;14.804;2022-09-06T02:38:37;9.90;99.90
18839;DHT22;9548;56.920;14.804;2022-09-06T02:41:05;9.90;99.90
18839;DHT22;9548;56.920;14.804;2022-09-06T02:43:33;9.90;99.90
18839;DHT22;9548;56.920;14.804;2022-09-06T02:46:01;9.90;99.90
18839;DHT22;9548;56.920;14.804;2022-09-06T02:48:28;10.00;99.90
18839;DHT22;9548;56.920;14.804;2022-09-06T02:50:55;10.00;99.90
18839;DHT22;9548;56.920;14.804;2022-09-06T02:53:22;10.00;99.90
18839;DHT22;9548;56.920;14.804;2022-09-06T02:55:49;9.90;99.90
18839;DHT22;9548;56.920;14.804;2022-09-06T02:58:16;9.90;99.90
18839;DHT22;9548;56.920;14.804;2022-09-06T03:00:42;9.90;99.90
18839;DHT22;9548;56.920;14.804;2022-09-06T03:03:11;9.80;99.90
18839;DHT22;9548;56.920;14.804;2022-09-06T03:05:38;9.80;99.90
18839;DHT22;9548;56.920;14.804;2022-09-06T03:08:05;9.70;99.90
18839;DHT22;9548;56.920;14.804;2022-09-06T03:10:32;9.70;99.90
18839;DHT22;9548;56.920;14.804;2022-09-06T03:12:59;9.60;99.90
18839;DHT22;9548;56.920;14.804;2022-09-06T03:15:30;9.50;99.90
18839;DHT22;9548;56.920;14.804;2022-09-06T03:17:57;9.40;99.90
18839;DHT22;9548;56.920;14.804;2022-09-06T03:20:26;9.30;99.90
18839;DHT22;9548;56.920;14.804;2022-09-06T03:22:53;9.20;99.90
18839;DHT22;9548;56.920;14.804;2022-09-06T03:25:20;9.10;99.90
18839;DHT22;9548;56.920;14.804;2022-09-06T03:27:47;9.00;99.90
18839;DHT22;9548;56.920;14.804;2022-09-06T03:30:14;8.90;99.90
18839;DHT22;9548;56.920;14.804;2022-09-06T03:32:41;8.80;99.90
18839;DHT22;9548;56.920;14.804;2022-09-06T03:35:09;8.70;99.90
18839;DHT22;9548;56.920;14.804;2022-09-06T03:37:37;8.50;99.90
18839;DHT22;9548;56.920;14.804;2022-09-06T03:40:05;8.40;99.90
18839;DHT22;9548;56.920;14.804;2022-09-06T03:42:32;8.30;99.90
18839;DHT22;9548;56.920;14.804;2022-09-06T03:44:59;8.20;99.90
18839;DHT22;9548;56.920;14.804;2022-09-06T03:47:26;8.10;99.90
18839;DHT22;9548;56.920;14.804;2022-09-06T03:49:53;8.00;99.90
18839;DHT22;9548;56.920;14.804;2022-09-06T03:52:20;7.90;99.90
18839;DHT22;9548;56.920;14.804;2022-09-06T03:54:48;7.80;99.90
18839;DHT22;9548;56.920;14.804;2022-09-06T03:57:15;7.70;99.90
18839;DHT22;9548;56.920;14.804;2022-09-06T03:59:42;7.60;99.90
18839;DHT22;9548;56.920;14.804;2022-09-06T04:02:09;7.50;99.90
18839;DHT22;9548;56.920;14.804;2022-09-06T04:04:35;7.40;99.90
18839;DHT22;9548;56.920;14.804;2022-09-06T04:07:02;7.40;99.90
18839;DHT22;9548;56.920;14.804;2022-09-06T04:09:29;7.30;99.90
18839;DHT22;9548;56.920;14.804;2022-09-06T04:11:57;7.20;99.90
18839;DHT22;9548;56.920;14.804;2022-09-06T04:14:24;7.20;99.90
18839;DHT22;9548;56.920;14.804;2022-09-06T04:16:51;7.20;99.90
18839;DHT22;9548;56.920;14.804;2022-09-06T04:19:18;7.20;99.90
18839;DHT22;9548;56.920;14.804;2022-09-06T04:21:45;7.20;99.90
18839;DHT22;9548;56.920;14.804;2022-09-06T04:24:12;7.10;99.90
18839;DHT22;9548;56.920;14.804;2022-09-06T04:26:39;7.10;99.90
18839;DHT22;9548;56.920;14.804;2022-09-06T04:29:07;7.10;99.90
18839;DHT22;9548;56.920;14.804;2022-09-06T04:31:34;7.00;99.90
18839;DHT22;9548;56.920;14.804;2022-09-06T04:34:01;7.10;99.90
18839;DHT22;9548;56.920;14.804;2022-09-06T04:36:28;7.10;99.90
18839;DHT22;9548;56.920;14.804;2022-09-06T04:38:55;7.20;99.90
18839;DHT22;9548;56.920;14.804;2022-09-06T04:41:22;7.30;99.90
18839;DHT22;9548;56.920;14.804;2022-09-06T04:43:49;7.30;99.90
18839;DHT22;9548;56.920;14.804;2022-09-06T04:46:19;7.30;99.90
18839;DHT22;9548;56.920;14.804;2022-09-06T04:48:46;7.40;99.90
18839;DHT22;9548;56.920;14.804;2022-09-06T04:51:13;7.30;99.90
18839;DHT22;9548;56.920;14.804;2022-09-06T04:53:40;7.30;99.90
18839;DHT22;9548;56.920;14.804;2022-09-06T04:56:12;7.30;99.90
18839;DHT22;9548;56.920;14.804;2022-09-06T04:58:39;7.30;99.90
18839;DHT22;9548;56.920;14.804;2022-09-06T05:01:06;7.30;99.90
18839;DHT22;9548;56.920;14.804;2022-09-06T05:03:34;7.30;99.90
18839;DHT22;9548;56.920;14.804;2022-09-06T05:06:06;7.30;99.90
18839;DHT22;9548;56.920;14.804;2022-09-06T05:08:34;7.30;99.90
18839;DHT22;9548;56.920;14.804;2022-09-06T05:11:01;7.30;99.90
18839;DHT22;9548;56.920;14.804;2022-09-06T05:13:28;7.30;99.90
18839;DHT22;9548;56.920;14.804;2022-09-06T05:15:58;7.40;99.90
18839;DHT22;9548;56.920;14.804;2022-09-06T05:18:25;7.40;99.90
18839;DHT22;9548;56.920;14.804;2022-09-06T05:20:54;7.50;99.90
18839;DHT22;9548;56.920;14.804;2022-09-06T05:23:21;7.60;99.90
18839;DHT22;9548;56.920;14.804;2022-09-06T05:25:48;7.70;99.90
18839;DHT22;9548;56.920;14.804;2022-09-06T05:28:16;7.80;99.90
18839;DHT22;9548;56.920;14.804;2022-09-06T05:30:43;7.90;99.90
18839;DHT22;9548;56.920;14.804;2022-09-06T05:33:11;7.90;99.90
18839;DHT22;9548;56.920;14.804;2022-09-06T05:35:39;8.00;99.90
18839;DHT22;9548;56.920;14.804;2022-09-06T05:38:07;8.10;99.90
18839;DHT22;9548;56.920;14.804;2022-09-06T05:40:34;8.10;99.90
18839;DHT22;9548;56.920;14.804;2022-09-06T05:43:01;8.30;99.90
18839;DHT22;9548;56.920;14.804;2022-09-06T05:45:28;8.40;99.90
18839;DHT22;9548;56.920;14.804;2022-09-06T05:47:54;8.50;99.90
18839;DHT22;9548;56.920;14.804;2022-09-06T05:50:21;8.60;99.90
18839;DHT22;9548;56.920;14.804;2022-09-06T05:52:48;8.70;99.90
18839;DHT22;9548;56.920;14.804;2022-09-06T05:55:16;8.70;99.90
18839;DHT22;9548;56.920;14.804;2022-09-06T05:57:44;8.70;99.90
18839;DHT22;9548;56.920;14.804;2022-09-06T06:00:12;8.80;99.90
18839;DHT22;9548;56.920;14.804;2022-09-06T06:02:39;8.80;99.90
18839;DHT22;9548;56.920;14.804;2022-09-06T06:05:06;8.90;99.90
18839;DHT22;9548;56.920;14.804;2022-09-06T06:07:34;9.00;99.90
18839;DHT22;9548;56.920;14.804;2022-09-06T06:10:01;9.10;99.90
18839;DHT22;9548;56.920;14.804;2022-09-06T06:12:30;9.10;99.90
18839;DHT22;9548;56.920;14.804;2022-09-06T06:14:57;9.20;99.90
18839;DHT22;9548;56.920;14.804;2022-09-06T06:17:24;9.30;99.90
18839;DHT22;9548;56.920;14.804;2022-09-06T06:19:51;9.40;99.90
18839;DHT22;9548;56.920;14.804;2022-09-06T06:22:18;9.50;99.90
18839;DHT22;9548;56.920;14.804;2022-09-06T06:24:44;9.60;99.90
18839;DHT22;9548;56.920;14.804;2022-09-06T06:27:11;9.70;99.90
18839;DHT22;9548;56.920;14.804;2022-09-06T06:29:39;9.80;99.90
18839;DHT22;9548;56.920;14.804;2022-09-06T06:32:06;9.80;99.90
18839;DHT22;9548;56.920;14.804;2022-09-06T06:34:33;9.90;99.90
18839;DHT22;9548;56.920;14.804;2022-09-06T06:37:00;9.90;99.90
18839;DHT22;9548;56.920;14.804;2022-09-06T06:39:27;10.00;99.90
18839;DHT22;9548;56.920;14.804;2022-09-06T06:41:54;10.10;99.90
18839;DHT22;9548;56.920;14.804;2022-09-06T06:44:21;10.30;99.90
18839;DHT22;9548;56.920;14.804;2022-09-06T06:46:49;10.40;99.90
18839;DHT22;9548;56.920;14.804;2022-09-06T06:49:16;10.50;99.90
18839;DHT22;9548;56.920;14.804;2022-09-06T06:51:43;10.70;99.90
18839;DHT22;9548;56.920;14.804;2022-09-06T06:54:11;10.80;99.90
18839;DHT22;9548;56.920;14.804;2022-09-06T06:56:39;10.90;99.90
18839;DHT22;9548;56.920;14.804;2022-09-06T06:59:06;11.00;99.90
18839;DHT22;9548;56.920;14.804;2022-09-06T07:01:34;11.10;99.90
18839;DHT22;9548;56.920;14.804;2022-09-06T07:04:03;11.20;99.90
18839;DHT22;9548;56.920;14.804;2022-09-06T07:06:30;11.40;99.90
18839;DHT22;9548;56.920;14.804;2022-09-06T07:08:57;11.50;99.90
18839;DHT22;9548;56.920;14.804;2022-09-06T07:11:24;11.70;99.90
18839;DHT22;9548;56.920;14.804;2022-09-06T07:13:51;11.80;99.90
18839;DHT22;9548;56.920;14.804;2022-09-06T07:16:20;11.90;99.90
18839;DHT22;9548;56.920;14.804;2022-09-06T07:18:50;12.10;99.90
18839;DHT22;9548;56.920;14.804;2022-09-06T07:21:20;12.30;99.90
18839;DHT22;9548;56.920;14.804;2022-09-06T07:23:50;12.40;99.90
18839;DHT22;9548;56.920;14.804;2022-09-06T07:26:20;12.50;99.90
18839;DHT22;9548;56.920;14.804;2022-09-06T07:28:47;12.60;99.90
18839;DHT22;9548;56.920;14.804;2022-09-06T07:31:17;12.70;99.90
18839;DHT22;9548;56.920;14.804;2022-09-06T07:33:44;12.90;99.90
18839;DHT22;9548;56.920;14.804;2022-09-06T07:36:11;13.00;99.90
18839;DHT22;9548;56.920;14.804;2022-09-06T07:38:39;13.10;99.90
18839;DHT22;9548;56.920;14.804;2022-09-06T07:41:07;13.20;99.90
18839;DHT22;9548;56.920;14.804;2022-09-06T07:43:35;13.40;99.90
18839;DHT22;9548;56.920;14.804;2022-09-06T07:46:04;13.50;99.90
18839;DHT22;9548;56.920;14.804;2022-09-06T07:48:33;13.50;99.90
18839;DHT22;9548;56.920;14.804;2022-09-06T07:51:05;13.60;99.90
18839;DHT22;9548;56.920;14.804;2022-09-06T07:53:32;13.70;99.90
18839;DHT22;9548;56.920;14.804;2022-09-06T07:56:02;13.90;99.90
18839;DHT22;9548;56.920;14.804;2022-09-06T07:58:30;14.00;99.90
18839;DHT22;9548;56.920;14.804;2022-09-06T08:01:17;14.10;99.90
18839;DHT22;9548;56.920;14.804;2022-09-06T08:03:46;14.30;99.90
18839;DHT22;9548;56.920;14.804;2022-09-06T08:06:13;14.30;99.90
18839;DHT22;9548;56.920;14.804;2022-09-06T08:08:40;14.40;99.90
18839;DHT22;9548;56.920;14.804;2022-09-06T08:11:08;14.40;99.90
18839;DHT22;9548;56.920;14.804;2022-09-06T08:13:36;14.60;99.90
18839;DHT22;9548;56.920;14.804;2022-09-06T08:16:04;14.70;99.90
18839;DHT22;9548;56.920;14.804;2022-09-06T08:18:32;14.70;99.90
18839;DHT22;9548;56.920;14.804;2022-09-06T08:21:07;14.80;99.90
18839;DHT22;9548;56.920;14.804;2022-09-06T08:23:35;14.90;99.90
18839;DHT22;9548;56.920;14.804;2022-09-06T08:26:02;15.00;99.90
18839;DHT22;9548;56.920;14.804;2022-09-06T08:28:31;15.00;99.90
18839;DHT22;9548;56.920;14.804;2022-09-06T08:31:04;15.20;99.90
18839;DHT22;9548;56.920;14.804;2022-09-06T08:33:31;15.20;99.90
18839;DHT22;9548;56.920;14.804;2022-09-06T08:35:59;15.40;99.90
18839;DHT22;9548;56.920;14.804;2022-09-06T08:38:27;15.50;99.90
18839;DHT22;9548;56.920;14.804;2022-09-06T08:40:54;15.60;99.90
18839;DHT22;9548;56.920;14.804;2022-09-06T08:43:34;15.60;99.90
18839;DHT22;9548;56.920;14.804;2022-09-06T08:46:01;15.80;99.90
18839;DHT22;9548;56.920;14.804;2022-09-06T08:48:31;16.00;99.90
18839;DHT22;9548;56.920;14.804;2022-09-06T08:51:12;16.10;99.90
18839;DHT22;9548;56.920;14.804;2022-09-06T08:53:44;16.20;99.90
18839;DHT22;9548;56.920;14.804;2022-09-06T08:56:15;16.40;99.90
18839;DHT22;9548;56.920;14.804;2022-09-06T08:59:02;16.60;99.90
18839;DHT22;9548;56.920;14.804;2022-09-06T09:01:34;16.80;99.90
18839;DHT22;9548;56.920;14.804;2022-09-06T09:04:11;16.80;99.90
18839;DHT22;9548;56.920;14.804;2022-09-06T09:06:39;17.00;99.90
18839;DHT22;9548;56.920;14.804;2022-09-06T09:09:09;17.10;99.90
18839;DHT22;9548;56.920;14.804;2022-09-06T09:11:38;17.40;99.90
18839;DHT22;9548;56.920;14.804;2022-09-06T09:14:15;17.60;99.90
18839;DHT22;9548;56.920;14.804;2022-09-06T09:16:44;17.80;99.90
18839;DHT22;9548;56.920;14.804;2022-09-06T09:19:15;18.00;99.90
18839;DHT22;9548;56.920;14.804;2022-09-06T09:21:42;18.10;99.90
18839;DHT22;9548;56.920;14.804;2022-09-06T09:24:12;18.20;99.90
18839;DHT22;9548;56.920;14.804;2022-09-06T09:26:45;18.30;99.90
18839;DHT22;9548;56.920;14.804;2022-09-06T09:29:15;18.60;99.90
18839;DHT22;9548;56.920;14.804;2022-09-06T09:31:46;18.60;99.90
18839;DHT22;9548;56.920;14.804;2022-09-06T09:34:27;18.60;99.80
18839;DHT22;9548;56.920;14.804;2022-09-06T09:37:09;19.10;99.80
18839;DHT22;9548;56.920;14.804;2022-09-06T09:39:38;19.90;98.50
18839;DHT22;9548;56.920;14.804;2022-09-06T09:42:06;20.50;97.50
18839;DHT22;9548;56.920;14.804;2022-09-06T09:44:35;21.30;96.40
18839;DHT22;9548;56.920;14.804;2022-09-06T09:47:22;22.00;94.70
18839;DHT22;9548;56.920;14.804;2022-09-06T09:49:49;22.90;93.80
18839;DHT22;9548;56.920;14.804;2022-09-06T09:52:23;23.40;91.70
18839;DHT22;9548;56.920;14.804;2022-09-06T09:54:50;24.00;91.90
18839;DHT22;9548;56.920;14.804;2022-09-06T09:57:21;24.80;86.10
18839;DHT22;9548;56.920;14.804;2022-09-06T09:59:52;25.80;83.10
18839;DHT22;9548;56.920;14.804;2022-09-06T10:02:24;26.60;81.20
18839;DHT22;9548;56.920;14.804;2022-09-06T10:04:59;27.10;77.80
18839;DHT22;9548;56.920;14.804;2022-09-06T10:07:26;28.20;75.80
18839;DHT22;9548;56.920;14.804;2022-09-06T10:09:57;28.40;72.50
18839;DHT22;9548;56.920;14.804;2022-09-06T10:12:30;29.20;72.90
18839;DHT22;9548;56.920;14.804;2022-09-06T10:14:58;29.90;70.60
18839;DHT22;9548;56.920;14.804;2022-09-06T10:17:30;30.30;68.20
18839;DHT22;9548;56.920;14.804;2022-09-06T10:20:00;30.90;64.60
18839;DHT22;9548;56.920;14.804;2022-09-06T10:22:30;31.60;64.30
18839;DHT22;9548;56.920;14.804;2022-09-06T10:30:56;33.00;57.30
18839;DHT22;9548;56.920;14.804;2022-09-06T10:33:30;33.70;55.10
18839;DHT22;9548;56.920;14.804;2022-09-06T10:36:01;34.00;55.20
18839;DHT22;9548;56.920;14.804;2022-09-06T10:38:40;34.60;52.80
18839;DHT22;9548;56.920;14.804;2022-09-06T10:41:25;35.00;51.80
18839;DHT22;9548;56.920;14.804;2022-09-06T10:44:05;35.20;50.80
18839;DHT22;9548;56.920;14.804;2022-09-06T10:46:37;35.30;49.90
18839;DHT22;9548;56.920;14.804;2022-09-06T10:49:08;34.60;48.80
18839;DHT22;9548;56.920;14.804;2022-09-06T10:51:38;34.10;46.70
18839;DHT22;9548;56.920;14.804;2022-09-06T10:54:09;34.30;47.60
18839;DHT22;9548;56.920;14.804;2022-09-06T10:56:39;33.20;48.10
18839;DHT22;9548;56.920;14.804;2022-09-06T10:59:12;31.90;49.50
18839;DHT22;9548;56.920;14.804;2022-09-06T11:01:48;31.80;49.10
18839;DHT22;9548;56.920;14.804;2022-09-06T11:04:24;32.20;48.60
18839;DHT22;9548;56.920;14.804;2022-09-06T11:06:56;30.90;50.10
18839;DHT22;9548;56.920;14.804;2022-09-06T11:09:28;29.90;51.20
18839;DHT22;9548;56.920;14.804;2022-09-06T11:12:03;30.40;51.50
18839;DHT22;9548;56.920;14.804;2022-09-06T11:14:33;31.30;51.60
18839;DHT22;9548;56.920;14.804;2022-09-06T11:17:06;31.30;51.20
18839;DHT22;9548;56.920;14.804;2022-09-06T11:19:40;30.30;51.50
18839;DHT22;9548;56.920;14.804;2022-09-06T11:22:32;29.80;52.60
18839;DHT22;9548;56.920;14.804;2022-09-06T11:25:38;31.60;53.10
18839;DHT22;9548;56.920;14.804;2022-09-06T11:28:12;34.10;48.60
18839;DHT22;9548;56.920;14.804;2022-09-06T11:30:43;35.60;47.30
18839;DHT22;9548;56.920;14.804;2022-09-06T11:33:21;36.20;47.10
18839;DHT22;9548;56.920;14.804;2022-09-06T11:35:50;36.40;47.10
18839;DHT22;9548;56.920;14.804;2022-09-06T11:38:22;36.20;45.10
18839;DHT22;9548;56.920;14.804;2022-09-06T11:40:56;36.00;44.30
18839;DHT22;9548;56.920;14.804;2022-09-06T11:43:45;34.20;45.00
18839;DHT22;9548;56.920;14.804;2022-09-06T11:49:32;29.70;50.30
18839;DHT22;9548;56.920;14.804;2022-09-06T11:51:59;30.70;49.50
18839;DHT22;9548;56.920;14.804;2022-09-06T11:54:36;30.90;50.30
18839;DHT22;9548;56.920;14.804;2022-09-06T11:57:12;31.90;50.70
18839;DHT22;9548;56.920;14.804;2022-09-06T11:59:53;33.90;48.60
18839;DHT22;9548;56.920;14.804;2022-09-06T12:02:33;35.70;46.80
18839;DHT22;9548;56.920;14.804;2022-09-06T12:05:23;36.60;45.90
18839;DHT22;9548;56.920;14.804;2022-09-06T12:11:05;35.30;44.40
18839;DHT22;9548;56.920;14.804;2022-09-06T12:13:52;34.30;45.10
18839;DHT22;9548;56.920;14.804;2022-09-06T12:16:20;33.20;46.50
18839;DHT22;9548;56.920;14.804;2022-09-06T12:18:56;33.50;46.50
18839;DHT22;9548;56.920;14.804;2022-09-06T12:21:48;34.00;46.10
18839;DHT22;9548;56.920;14.804;2022-09-06T12:24:50;33.80;46.60
18839;DHT22;9548;56.920;14.804;2022-09-06T12:27:19;34.30;46.50
18839;DHT22;9548;56.920;14.804;2022-09-06T12:29:52;34.70;45.50
18839;DHT22;9548;56.920;14.804;2022-09-06T12:32:24;35.40;45.60
18839;DHT22;9548;56.920;14.804;2022-09-06T12:34:52;36.80;43.70
18839;DHT22;9548;56.920;14.804;2022-09-06T12:37:32;38.00;43.20
18839;DHT22;9548;56.920;14.804;2022-09-06T12:39:59;38.70;43.00
18839;DHT22;9548;56.920;14.804;2022-09-06T12:42:26;38.90;43.40
18839;DHT22;9548;56.920;14.804;2022-09-06T12:44:54;39.30;41.10
18839;DHT22;9548;56.920;14.804;2022-09-06T12:47:24;39.20;41.70
18839;DHT22;9548;56.920;14.804;2022-09-06T12:50:07;39.90;41.30
18839;DHT22;9548;56.920;14.804;2022-09-06T12:52:43;40.30;40.00
18839;DHT22;9548;56.920;14.804;2022-09-06T12:55:24;40.20;40.30
18839;DHT22;9548;56.920;14.804;2022-09-06T12:57:53;40.50;40.70
18839;DHT22;9548;56.920;14.804;2022-09-06T13:00:22;41.00;40.70
18839;DHT22;9548;56.920;14.804;2022-09-06T13:02:57;41.70;40.50
18839;DHT22;9548;56.920;14.804;2022-09-06T13:05:27;42.90;40.00
18839;DHT22;9548;56.920;14.804;2022-09-06T13:07:58;42.70;37.60
18839;DHT22;9548;56.920;14.804;2022-09-06T13:10:26;42.80;38.50
18839;DHT22;9548;56.920;14.804;2022-09-06T13:12:56;43.40;38.50
18839;DHT22;9548;56.920;14.804;2022-09-06T13:15:26;44.10;37.70
18839;DHT22;9548;56.920;14.804;2022-09-06T13:17:55;44.80;37.10
18839;DHT22;9548;56.920;14.804;2022-09-06T13:20:41;44.20;35.60
18839;DHT22;9548;56.920;14.804;2022-09-06T13:23:11;43.10;35.70
18839;DHT22;9548;56.920;14.804;2022-09-06T13:25:47;42.90;36.60
18839;DHT22;9548;56.920;14.804;2022-09-06T13:28:23;41.90;36.30
18839;DHT22;9548;56.920;14.804;2022-09-06T13:31:02;41.40;36.60
18839;DHT22;9548;56.920;14.804;2022-09-06T13:33:29;40.70;37.10
18839;DHT22;9548;56.920;14.804;2022-09-06T13:36:06;40.10;37.80
18839;DHT22;9548;56.920;14.804;2022-09-06T13:38:39;39.90;37.60
18839;DHT22;9548;56.920;14.804;2022-09-06T13:41:36;39.70;37.70
18839;DHT22;9548;56.920;14.804;2022-09-06T13:44:15;39.40;38.00
18839;DHT22;9548;56.920;14.804;2022-09-06T13:46:43;39.10;38.40
18839;DHT22;9548;56.920;14.804;2022-09-06T13:49:10;39.80;37.70
18839;DHT22;9548;56.920;14.804;2022-09-06T13:51:38;40.30;37.80
18839;DHT22;9548;56.920;14.804;2022-09-06T13:54:09;41.80;36.70
18839;DHT22;9548;56.920;14.804;2022-09-06T13:56:37;42.20;36.10
18839;DHT22;9548;56.920;14.804;2022-09-06T13:59:04;41.30;36.40
18839;DHT22;9548;56.920;14.804;2022-09-06T14:01:32;40.10;37.30
18839;DHT22;9548;56.920;14.804;2022-09-06T14:03:59;40.30;37.60
18839;DHT22;9548;56.920;14.804;2022-09-06T14:06:26;39.40;37.40
18839;DHT22;9548;56.920;14.804;2022-09-06T14:08:53;39.70;37.60
18839;DHT22;9548;56.920;14.804;2022-09-06T14:11:21;40.00;37.10
18839;DHT22;9548;56.920;14.804;2022-09-06T14:13:50;39.90;36.80
18839;DHT22;9548;56.920;14.804;2022-09-06T14:16:17;39.80;37.50
18839;DHT22;9548;56.920;14.804;2022-09-06T14:18:43;40.70;37.10
18839;DHT22;9548;56.920;14.804;2022-09-06T14:21:11;41.40;36.60
18839;DHT22;9548;56.920;14.804;2022-09-06T14:23:38;39.90;36.40
18839;DHT22;9548;56.920;14.804;2022-09-06T14:26:05;39.70;37.90
18839;DHT22;9548;56.920;14.804;2022-09-06T14:28:33;40.20;36.50
18839;DHT22;9548;56.920;14.804;2022-09-06T14:31:08;40.30;37.00
18839;DHT22;9548;56.920;14.804;2022-09-06T14:33:36;40.70;36.30
18839;DHT22;9548;56.920;14.804;2022-09-06T14:36:05;40.60;36.20
18839;DHT22;9548;56.920;14.804;2022-09-06T14:38:35;40.70;36.70
18839;DHT22;9548;56.920;14.804;2022-09-06T14:41:03;40.50;35.80
18839;DHT22;9548;56.920;14.804;2022-09-06T14:43:30;40.40;35.80
18839;DHT22;9548;56.920;14.804;2022-09-06T14:46:03;39.00;36.30
18839;DHT22;9548;56.920;14.804;2022-09-06T14:48:30;37.30;37.00
18839;DHT22;9548;56.920;14.804;2022-09-06T14:50:58;36.10;38.50
18839;DHT22;9548;56.920;14.804;2022-09-06T14:53:32;35.90;38.30
18839;DHT22;9548;56.920;14.804;2022-09-06T14:56:00;34.70;39.20
18839;DHT22;9548;56.920;14.804;2022-09-06T14:58:29;33.30;41.70
18839;DHT22;9548;56.920;14.804;2022-09-06T15:01:06;31.90;42.00
18839;DHT22;9548;56.920;14.804;2022-09-06T15:03:34;31.60;44.00
18839;DHT22;9548;56.920;14.804;2022-09-06T15:06:02;31.10;42.80
18839;DHT22;9548;56.920;14.804;2022-09-06T15:08:28;30.10;43.90
18839;DHT22;9548;56.920;14.804;2022-09-06T15:10:55;30.10;44.60
18839;DHT22;9548;56.920;14.804;2022-09-06T15:13:23;30.10;44.80
18839;DHT22;9548;56.920;14.804;2022-09-06T15:15:51;30.10;45.20
18839;DHT22;9548;56.920;14.804;2022-09-06T15:18:19;29.50;45.30
18839;DHT22;9548;56.920;14.804;2022-09-06T15:20:47;29.20;45.40
18839;DHT22;9548;56.920;14.804;2022-09-06T15:23:14;29.10;45.80
18839;DHT22;9548;56.920;14.804;2022-09-06T15:25:45;28.50;45.20
18839;DHT22;9548;56.920;14.804;2022-09-06T15:28:13;28.70;45.70
18839;DHT22;9548;56.920;14.804;2022-09-06T15:30:40;29.30;45.60
18839;DHT22;9548;56.920;14.804;2022-09-06T15:33:07;29.90;45.80
18839;DHT22;9548;56.920;14.804;2022-09-06T15:35:37;30.00;45.00
18839;DHT22;9548;56.920;14.804;2022-09-06T15:38:03;29.80;45.00
18839;DHT22;9548;56.920;14.804;2022-09-06T15:40:30;29.20;46.30
18839;DHT22;9548;56.920;14.804;2022-09-06T15:42:58;28.70;46.10
18839;DHT22;9548;56.920;14.804;2022-09-06T15:45:25;27.90;47.00
18839;DHT22;9548;56.920;14.804;2022-09-06T15:47:52;27.70;47.80
18839;DHT22;9548;56.920;14.804;2022-09-06T15:50:20;27.90;47.20
18839;DHT22;9548;56.920;14.804;2022-09-06T15:52:48;27.60;48.60
18839;DHT22;9548;56.920;14.804;2022-09-06T15:55:15;27.80;47.60
18839;DHT22;9548;56.920;14.804;2022-09-06T15:58:00;28.40;47.20
18839;DHT22;9548;56.920;14.804;2022-09-06T16:00:27;29.50;46.30
18839;DHT22;9548;56.920;14.804;2022-09-06T16:02:54;29.70;45.80
18839;DHT22;9548;56.920;14.804;2022-09-06T16:05:21;29.40;46.90
18839;DHT22;9548;56.920;14.804;2022-09-06T16:07:50;29.20;46.10
18839;DHT22;9548;56.920;14.804;2022-09-06T16:10:17;29.00;48.10
18839;DHT22;9548;56.920;14.804;2022-09-06T16:12:44;28.80;49.70